createdAt,value
2022-10-30T00:01:22.941Z,5.94
2022-10-30T00:03:51.287Z,5.62
2022-10-30T00:06:19.608Z,6.15
2022-10-30T00:08:47.903Z,6.55
2022-10-30T00:11:16.214Z,6.56
2022-10-30T00:13:45.196Z,5.98
2022-10-30T00:16:13.556Z,5.94
2022-10-30T00:18:44.431Z,6.40
2022-10-30T00:21:14.661Z,5.27
2022-10-30T00:23:49.720Z,5.91
2022-10-30T00:26:19.082Z,6.15
2022-10-30T00:28:56.671Z,5.82
2022-10-30T00:31:25.031Z,5.49
2022-10-30T00:33:54.036Z,5.19
2022-10-30T00:36:23.007Z,5.70
2022-10-30T00:38:51.318Z,6.06
2022-10-30T00:41:22.996Z,5.62
2022-10-30T00:43:51.751Z,6.06
2022-10-30T00:46:33.841Z,6.20
2022-10-30T00:49:20.265Z,6.37
2022-10-30T00:51:50.484Z,6.59
2022-10-30T00:54:18.909Z,6.51
2022-10-30T00:56:47.268Z,5.55
2022-10-30T00:59:18.472Z,5.46
2022-10-30T01:01:46.809Z,6.04
2022-10-30T01:04:15.114Z,6.19
2022-10-30T01:06:43.876Z,6.34
2022-10-30T01:09:12.276Z,5.50
2022-10-30T01:11:40.758Z,5.92
2022-10-30T01:14:09.178Z,5.79
2022-10-30T01:17:15.897Z,6.21
2022-10-30T01:19:58.973Z,5.47
2022-10-30T01:22:30.290Z,5.66
2022-10-30T01:25:26.633Z,6.01
2022-10-30T01:28:03.282Z,6.09
2022-10-30T01:30:50.433Z,6.20
2022-10-30T01:33:50.670Z,6.05
2022-10-30T01:36:26.766Z,4.83
2022-10-30T01:39:03.222Z,5.36
2022-10-30T01:41:31.633Z,5.52
2022-10-30T01:44:04.138Z,5.79
2022-10-30T01:47:47.315Z,5.76
2022-10-30T01:50:37.099Z,5.95
2022-10-30T01:53:45.633Z,5.52
2022-10-30T01:56:28.183Z,5.89
2022-10-30T01:59:12.169Z,5.71
2022-10-30T02:01:40.888Z,5.73
2022-10-30T02:04:11.928Z,5.84
2022-10-30T02:06:40.503Z,5.91
2022-10-30T02:09:10.475Z,5.62
2022-10-30T02:11:47.412Z,5.67
2022-10-30T02:14:18.660Z,4.74
2022-10-30T02:16:49.302Z,4.83
2022-10-30T02:19:20.530Z,5.51
2022-10-30T02:21:50.144Z,5.47
2022-10-30T02:24:18.564Z,5.66
2022-10-30T02:26:47.117Z,5.54
2022-10-30T02:29:15.476Z,5.47
2022-10-30T02:31:43.726Z,5.56
2022-10-30T02:34:12.537Z,5.05
2022-10-30T02:36:40.964Z,5.59
2022-10-30T02:39:09.364Z,5.62
2022-10-30T02:41:38.116Z,4.51
2022-10-30T02:44:09.174Z,4.69
2022-10-30T02:46:37.414Z,5.22
2022-10-30T02:49:06.815Z,5.49
2022-10-30T02:51:35.725Z,5.42
2022-10-30T02:54:04.195Z,4.52
2022-10-30T02:56:33.007Z,5.29
2022-10-30T02:59:01.872Z,4.75
2022-10-30T03:01:30.411Z,5.28
2022-10-30T03:04:00.515Z,5.20
2022-10-30T03:06:30.072Z,4.61
2022-10-30T03:08:59.453Z,5.00
2022-10-30T03:11:27.751Z,5.10
2022-10-30T03:13:56.861Z,5.27
2022-10-30T03:16:26.316Z,4.96
2022-10-30T03:18:56.142Z,4.17
2022-10-30T03:21:25.488Z,4.66
2022-10-30T03:23:54.328Z,4.95
2022-10-30T03:26:22.891Z,4.51
2022-10-30T03:29:20.618Z,4.17
2022-10-30T03:31:49.117Z,4.42
2022-10-30T03:34:21.161Z,3.76
2022-10-30T03:36:49.560Z,4.65
2022-10-30T03:39:17.848Z,4.89
2022-10-30T03:41:47.561Z,4.71
2022-10-30T03:44:15.850Z,3.98
2022-10-30T03:46:45.370Z,4.22
2022-10-30T03:49:28.020Z,4.59
2022-10-30T03:51:57.664Z,4.37
2022-10-30T03:54:27.624Z,3.99
2022-10-30T03:56:55.870Z,4.10
2022-10-30T03:59:27.448Z,4.34
2022-10-30T04:02:15.845Z,4.28
2022-10-30T04:04:44.451Z,3.71
2022-10-30T04:07:12.762Z,3.99
2022-10-30T04:09:41.142Z,4.51
2022-10-30T04:12:09.393Z,4.79
2022-10-30T04:14:37.840Z,4.27
2022-10-30T04:19:42.189Z,4.56
2022-10-30T04:22:11.426Z,4.72
2022-10-30T04:24:39.892Z,4.82
2022-10-30T04:27:10.209Z,4.78
2022-10-30T04:29:39.429Z,4.28
2022-10-30T04:32:07.854Z,3.93
2022-10-30T04:34:39.122Z,3.72
2022-10-30T04:37:07.675Z,4.50
2022-10-30T04:39:36.370Z,4.55
2022-10-30T04:42:15.050Z,4.22
2022-10-30T04:44:44.252Z,3.56
2022-10-30T04:47:12.646Z,4.41
2022-10-30T04:49:41.560Z,4.46
2022-10-30T04:52:09.900Z,4.68
2022-10-30T04:54:39.343Z,4.60
2022-10-30T04:57:08.704Z,4.59
2022-10-30T04:59:37.461Z,4.73
2022-10-30T05:02:06.526Z,4.05
2022-10-30T05:04:34.933Z,3.97
2022-10-30T05:07:04.085Z,4.49
2022-10-30T05:09:32.590Z,4.59
2022-10-30T05:12:00.894Z,4.43
2022-10-30T05:14:35.851Z,4.01
2022-10-30T05:17:04.450Z,4.13
2022-10-30T05:19:35.021Z,4.25
2022-10-30T05:22:03.920Z,3.49
2022-10-30T05:24:32.304Z,4.22
2022-10-30T05:27:00.570Z,4.54
2022-10-30T05:29:31.429Z,4.60
2022-10-30T05:32:00.252Z,4.40
2022-10-30T05:34:43.475Z,4.62
2022-10-30T05:37:14.565Z,4.63
2022-10-30T05:39:45.552Z,4.25
2022-10-30T05:42:27.943Z,4.74
2022-10-30T05:45:01.482Z,4.83
2022-10-30T05:47:32.817Z,4.97
2022-10-30T05:50:01.463Z,5.22
2022-10-30T05:52:31.130Z,5.55
2022-10-30T05:55:00.951Z,5.76
2022-10-30T05:57:42.880Z,6.05
2022-10-30T06:00:14.490Z,6.39
2022-10-30T06:02:45.498Z,6.64
2022-10-30T06:05:16.193Z,6.83
2022-10-30T06:07:44.621Z,7.33
2022-10-30T06:10:13.483Z,8.15
2022-10-30T06:13:06.393Z,8.79
2022-10-30T06:15:40.751Z,9.31
2022-10-30T06:18:11.813Z,9.09
2022-10-30T06:20:43.065Z,8.81
2022-10-30T06:23:20.334Z,8.96
2022-10-30T06:25:53.968Z,9.82
2022-10-30T06:28:32.752Z,10.20
2022-10-30T06:31:02.958Z,10.35
2022-10-30T06:33:32.969Z,10.92
2022-10-30T06:36:01.849Z,11.02
2022-10-30T06:38:30.379Z,12.29
2022-10-30T06:41:00.415Z,13.48
2022-10-30T06:44:01.839Z,13.85
2022-10-30T06:46:33.845Z,13.52
2022-10-30T06:49:02.624Z,13.78
2022-10-30T06:51:32.453Z,14.54
2022-10-30T06:54:01.938Z,15.40
2022-10-30T06:56:42.129Z,16.04
2022-10-30T06:59:16.480Z,16.73
2022-10-30T07:01:57.408Z,17.57
2022-10-30T07:04:36.613Z,18.50
2022-10-30T07:07:06.711Z,19.28
2022-10-30T07:09:36.630Z,19.52
2022-10-30T07:12:07.692Z,19.75
2022-10-30T07:14:56.265Z,20.00
2022-10-30T07:17:36.695Z,19.84
2022-10-30T07:20:13.013Z,19.88
2022-10-30T07:22:43.301Z,19.81
2022-10-30T07:25:12.480Z,19.52
2022-10-30T07:28:09.344Z,19.46
2022-10-30T07:31:03.556Z,20.14
2022-10-30T07:33:58.267Z,20.77
2022-10-30T07:36:40.895Z,21.08
2022-10-30T07:39:25.127Z,21.73
2022-10-30T07:42:12.005Z,21.80
2022-10-30T07:45:00.226Z,22.23
2022-10-30T07:47:44.050Z,22.55
2022-10-30T07:50:23.143Z,22.76
2022-10-30T07:52:51.542Z,23.10
2022-10-30T07:55:25.309Z,23.82
2022-10-30T07:57:54.252Z,24.31
2022-10-30T08:00:23.223Z,25.05
2022-10-30T08:03:02.256Z,25.19
2022-10-30T08:05:47.595Z,25.33
2022-10-30T08:08:22.953Z,25.19
2022-10-30T08:11:05.974Z,24.29
2022-10-30T08:13:34.934Z,23.38
2022-10-30T08:16:06.001Z,22.37
2022-10-30T08:18:36.120Z,21.20
2022-10-30T08:21:06.953Z,20.85
2022-10-30T08:23:35.947Z,21.01
2022-10-30T08:26:11.432Z,21.45
2022-10-30T08:28:41.334Z,22.33
2022-10-30T08:31:12.092Z,23.15
2022-10-30T08:34:04.609Z,24.64
2022-10-30T08:36:48.393Z,24.97
2022-10-30T08:39:20.385Z,25.23
2022-10-30T08:42:11.871Z,24.33
2022-10-30T08:44:45.762Z,23.14
2022-10-30T08:47:40.231Z,22.08
2022-10-30T08:50:09.498Z,20.39
2022-10-30T08:52:38.696Z,19.92
2022-10-30T08:55:08.754Z,19.52
2022-10-30T08:57:37.779Z,19.49
2022-10-30T09:00:06.923Z,18.56
2022-10-30T09:02:58.536Z,18.85
2022-10-30T09:06:05.638Z,18.24
2022-10-30T09:08:52.650Z,17.60
2022-10-30T09:11:31.278Z,17.39
2022-10-30T09:14:00.235Z,17.14
2022-10-30T09:16:29.964Z,17.66
2022-10-30T09:18:58.355Z,17.81
2022-10-30T09:21:26.655Z,17.73
2022-10-30T09:23:58.431Z,17.66
2022-10-30T09:26:35.484Z,17.25
2022-10-30T09:29:31.916Z,17.40
2022-10-30T09:32:16.844Z,17.77
2022-10-30T09:35:04.836Z,18.20
2022-10-30T09:37:38.765Z,18.20
2022-10-30T09:40:36.433Z,18.19
2022-10-30T09:43:42.793Z,18.03
2022-10-30T09:46:33.453Z,18.30
2022-10-30T09:49:11.665Z,18.43
2022-10-30T09:52:08.452Z,18.81
2022-10-30T09:54:56.430Z,18.97
2022-10-30T09:57:39.617Z,18.89
2022-10-30T10:00:13.010Z,19.17
2022-10-30T10:03:12.736Z,18.79
2022-10-30T10:06:02.118Z,19.13
2022-10-30T10:09:07.765Z,18.86
2022-10-30T10:12:06.788Z,18.35
2022-10-30T10:14:40.672Z,18.53
2022-10-30T10:17:12.781Z,19.17
2022-10-30T10:19:45.144Z,18.98
2022-10-30T10:22:26.458Z,19.68
2022-10-30T10:24:54.826Z,20.17
2022-10-30T10:27:53.027Z,19.74
2022-10-30T10:30:23.149Z,19.64
2022-10-30T10:33:57.934Z,19.46
2022-10-30T10:37:01.130Z,20.48
2022-10-30T10:39:42.089Z,20.07
2022-10-30T10:42:21.388Z,20.28
2022-10-30T10:45:28.663Z,20.83
2022-10-30T10:48:21.927Z,20.90
2022-10-30T10:50:52.048Z,20.72
2022-10-30T10:53:30.763Z,21.19
2022-10-30T10:56:00.333Z,21.64
2022-10-30T10:58:32.470Z,21.88
2022-10-30T11:01:01.928Z,22.20
2022-10-30T11:03:37.156Z,21.79
2022-10-30T11:06:22.036Z,21.79
2022-10-30T11:08:51.241Z,21.87
2022-10-30T11:11:19.538Z,22.18
2022-10-30T11:13:48.850Z,22.07
2022-10-30T11:16:38.517Z,21.93
2022-10-30T11:19:09.215Z,22.54
2022-10-30T11:21:44.023Z,22.23
2022-10-30T11:24:26.840Z,22.45
2022-10-30T11:27:18.058Z,21.92
2022-10-30T11:30:01.189Z,22.26
2022-10-30T11:32:35.393Z,22.67
2022-10-30T11:35:09.036Z,22.24
2022-10-30T11:37:41.949Z,21.78
2022-10-30T11:40:10.621Z,21.48
2022-10-30T11:42:47.390Z,21.78
2022-10-30T11:45:18.724Z,22.11
2022-10-30T11:47:47.808Z,21.94
2022-10-30T11:50:17.943Z,22.24
2022-10-30T11:52:47.394Z,22.91
2022-10-30T11:55:50.603Z,23.04
2022-10-30T11:58:39.044Z,22.23
2022-10-30T12:01:08.453Z,22.91
2022-10-30T12:03:41.677Z,21.80
2022-10-30T12:06:20.984Z,22.29
2022-10-30T12:09:22.220Z,23.05
2022-10-30T12:11:50.573Z,22.66
2022-10-30T12:14:23.932Z,22.78
2022-10-30T12:16:57.358Z,22.13
2022-10-30T12:19:34.213Z,22.70
2022-10-30T12:22:06.309Z,22.38
2022-10-30T12:24:39.020Z,22.93
2022-10-30T12:27:16.856Z,22.48
2022-10-30T12:30:10.139Z,22.37
2022-10-30T12:32:46.585Z,23.40
2022-10-30T12:35:19.334Z,23.33
2022-10-30T12:37:55.597Z,23.84
2022-10-30T12:40:27.145Z,23.55
2022-10-30T12:43:21.974Z,23.73
2022-10-30T12:45:51.422Z,23.92
2022-10-30T12:48:41.987Z,24.07
2022-10-30T12:51:23.910Z,23.65
2022-10-30T12:54:00.519Z,24.05
2022-10-30T12:56:34.189Z,24.27
2022-10-30T12:59:23.821Z,23.61
2022-10-30T13:01:54.616Z,23.69
2022-10-30T13:04:25.061Z,23.06
2022-10-30T13:07:18.932Z,23.67
2022-10-30T13:09:53.763Z,23.83
2022-10-30T13:12:24.052Z,23.11
2022-10-30T13:15:07.056Z,23.59
2022-10-30T13:17:35.349Z,23.47
2022-10-30T13:20:11.455Z,23.79
2022-10-30T13:22:58.066Z,23.73
2022-10-30T13:26:03.384Z,24.00
2022-10-30T13:29:03.917Z,23.75
2022-10-30T13:32:04.085Z,22.71
2022-10-30T13:35:18.290Z,22.17
2022-10-30T13:38:09.924Z,22.74
2022-10-30T13:40:52.925Z,23.08
2022-10-30T13:43:41.704Z,23.44
2022-10-30T13:47:08.333Z,22.84
2022-10-30T13:50:02.714Z,22.90
2022-10-30T13:52:32.505Z,22.78
2022-10-30T13:55:03.759Z,22.04
2022-10-30T13:57:43.231Z,22.23
2022-10-30T14:00:45.458Z,22.38
2022-10-30T14:03:38.938Z,22.03
2022-10-30T14:06:33.940Z,22.55
2022-10-30T14:09:19.894Z,21.84
2022-10-30T14:11:48.316Z,21.18
2022-10-30T14:14:16.604Z,22.15
2022-10-30T14:16:46.196Z,22.64
2022-10-30T14:19:18.284Z,22.54
2022-10-30T14:21:53.329Z,22.63
2022-10-30T14:24:34.890Z,22.09
2022-10-30T14:27:06.339Z,21.58
2022-10-30T14:29:35.350Z,21.52
2022-10-30T14:32:23.537Z,21.12
2022-10-30T14:34:52.172Z,21.46
2022-10-30T14:37:23.522Z,21.28
2022-10-30T14:39:53.494Z,20.75
2022-10-30T14:42:24.652Z,20.77
2022-10-30T14:45:18.500Z,20.48
2022-10-30T14:48:14.314Z,20.04
2022-10-30T14:50:49.840Z,20.02
2022-10-30T14:53:40.563Z,19.93
2022-10-30T14:59:10.482Z,20.17
2022-10-30T15:01:57.451Z,20.11
2022-10-30T15:04:35.994Z,19.78
2022-10-30T15:07:38.307Z,20.27
2022-10-30T15:10:29.487Z,20.35
2022-10-30T15:13:22.056Z,20.49
2022-10-30T15:16:08.861Z,20.11
2022-10-30T15:18:37.934Z,20.11
2022-10-30T15:21:07.729Z,20.17
2022-10-30T15:23:39.027Z,19.79
2022-10-30T15:26:10.124Z,19.95
2022-10-30T15:28:38.670Z,19.67
2022-10-30T15:31:24.444Z,19.99
2022-10-30T15:33:54.717Z,19.49
2022-10-30T15:36:26.453Z,19.61
2022-10-30T15:39:03.630Z,19.33
2022-10-30T15:41:37.658Z,18.98
2022-10-30T15:44:06.124Z,18.86
2022-10-30T15:46:34.584Z,19.19
2022-10-30T15:49:04.367Z,18.88
2022-10-30T15:51:35.409Z,19.08
2022-10-30T15:54:09.683Z,18.80
2022-10-30T15:57:08.353Z,18.55
2022-10-30T15:59:34.293Z,18.61
2022-10-30T16:02:04.525Z,18.67
2022-10-30T16:04:40.598Z,18.65
2022-10-30T16:07:36.733Z,18.34
2022-10-30T16:10:06.666Z,18.10
2022-10-30T16:12:37.090Z,18.17
2022-10-30T16:15:32.156Z,18.11
2022-10-30T16:18:23.435Z,17.93
2022-10-30T16:21:05.858Z,18.15
2022-10-30T16:24:07.272Z,17.98
2022-10-30T16:26:37.412Z,17.96
2022-10-30T16:29:33.754Z,17.52
2022-10-30T16:32:02.290Z,17.41
2022-10-30T16:34:38.683Z,17.38
2022-10-30T16:37:20.204Z,17.50
2022-10-30T16:39:50.464Z,17.21
2022-10-30T16:42:22.563Z,17.32
2022-10-30T16:44:51.111Z,17.64
2022-10-30T16:47:20.065Z,17.26
2022-10-30T16:49:58.618Z,17.00
2022-10-30T16:52:35.878Z,17.05
2022-10-30T16:55:06.643Z,17.11
2022-10-30T16:57:46.857Z,16.86
2022-10-30T17:00:27.242Z,16.84
2022-10-30T17:02:57.854Z,16.05
2022-10-30T17:05:30.049Z,16.09
2022-10-30T17:08:00.723Z,15.94
2022-10-30T17:10:44.845Z,16.12
2022-10-30T17:13:34.923Z,15.88
2022-10-30T17:16:30.222Z,15.98
2022-10-30T17:19:00.800Z,15.93
2022-10-30T17:21:38.796Z,15.98
2022-10-30T17:24:17.600Z,15.44
2022-10-30T17:26:46.075Z,15.51
2022-10-30T17:29:43.465Z,15.56
2022-10-30T17:32:23.905Z,15.91
2022-10-30T17:37:46.483Z,15.83
2022-10-30T17:40:15.472Z,15.84
2022-10-30T17:42:44.854Z,16.10
2022-10-30T17:45:14.696Z,16.15
2022-10-30T17:47:43.326Z,15.91
2022-10-30T17:50:15.116Z,15.47
2022-10-30T17:52:45.239Z,15.61
2022-10-30T17:55:24.832Z,15.93
2022-10-30T17:57:54.437Z,15.72
2022-10-30T18:00:23.865Z,15.94
2022-10-30T18:02:52.341Z,15.35
2022-10-30T18:05:22.813Z,15.52
2022-10-30T18:07:51.345Z,15.52
2022-10-30T18:10:21.284Z,15.71
2022-10-30T18:12:53.823Z,15.52
2022-10-30T18:15:41.146Z,15.73
2022-10-30T18:18:10.502Z,15.23
2022-10-30T18:20:39.122Z,15.00
2022-10-30T18:23:46.797Z,15.14
2022-10-30T18:26:19.719Z,14.83
2022-10-30T18:28:49.276Z,14.51
2022-10-30T18:31:19.897Z,14.84
2022-10-30T18:33:50.077Z,15.11
2022-10-30T18:36:23.115Z,14.67
2022-10-30T18:38:53.070Z,14.68
2022-10-30T18:41:44.794Z,14.35
2022-10-30T18:44:17.182Z,14.43
2022-10-30T18:46:48.395Z,14.50
2022-10-30T18:49:23.732Z,14.27
2022-10-30T18:52:01.672Z,14.36
2022-10-30T18:54:35.375Z,14.12
2022-10-30T18:57:03.948Z,14.18
2022-10-30T18:59:33.721Z,14.32
2022-10-30T19:02:03.462Z,14.06
2022-10-30T19:04:32.726Z,14.05
2022-10-30T19:07:05.950Z,14.12
2022-10-30T19:09:34.544Z,14.14
2022-10-30T19:12:02.998Z,13.81
2022-10-30T19:14:36.004Z,13.95
2022-10-30T19:17:04.997Z,13.39
2022-10-30T19:19:35.481Z,13.41
2022-10-30T19:22:08.396Z,13.28
2022-10-30T19:24:38.506Z,13.71
2022-10-30T19:27:07.997Z,13.62
2022-10-30T19:29:36.460Z,13.46
2022-10-30T19:32:05.637Z,13.54
2022-10-30T19:34:34.848Z,13.17
2022-10-30T19:37:04.170Z,13.22
2022-10-30T19:39:34.004Z,12.80
2022-10-30T19:42:03.472Z,12.73
2022-10-30T19:44:32.083Z,10.64
2022-10-30T19:47:01.158Z,11.15
2022-10-30T19:49:29.710Z,11.99
2022-10-30T19:51:59.476Z,12.12
2022-10-30T19:54:27.917Z,12.29
2022-10-30T19:56:56.493Z,12.22
2022-10-30T19:59:26.824Z,12.42
2022-10-30T20:01:56.117Z,12.54
2022-10-30T20:04:25.934Z,12.43
2022-10-30T20:06:56.234Z,12.35
2022-10-30T20:09:30.385Z,12.55
2022-10-30T20:11:58.912Z,12.30
2022-10-30T20:14:28.138Z,12.52
2022-10-30T20:16:56.587Z,12.37
2022-10-30T20:19:28.353Z,12.07
2022-10-30T20:21:57.397Z,12.38
2022-10-30T20:24:26.455Z,12.04
2022-10-30T20:26:57.126Z,12.08
2022-10-30T20:29:25.901Z,12.02
2022-10-30T20:31:55.666Z,11.98
2022-10-30T20:34:25.566Z,11.84
2022-10-30T20:36:54.189Z,11.87
2022-10-30T20:39:22.663Z,11.84
2022-10-30T20:41:51.583Z,11.37
2022-10-30T20:44:19.855Z,11.36
2022-10-30T20:46:48.733Z,11.79
2022-10-30T20:49:18.605Z,11.83
2022-10-30T20:51:47.913Z,11.58
2022-10-30T20:54:17.594Z,10.92
2022-10-30T20:56:45.981Z,11.49
2022-10-30T20:59:15.106Z,11.59
2022-10-30T21:01:43.524Z,11.74
2022-10-30T21:04:12.020Z,10.75
2022-10-30T21:06:40.502Z,10.81
2022-10-30T21:09:09.227Z,10.71
2022-10-30T21:11:37.543Z,11.22
2022-10-30T21:14:06.195Z,11.13
2022-10-30T21:16:34.483Z,11.22
2022-10-30T21:19:02.838Z,11.35
2022-10-30T21:21:31.200Z,11.19
2022-10-30T21:24:00.211Z,11.08
2022-10-30T21:26:28.493Z,10.48
2022-10-30T21:28:57.104Z,10.86
2022-10-30T21:31:28.532Z,11.18
2022-10-30T21:33:56.968Z,10.83
2022-10-30T21:36:26.629Z,11.09
2022-10-30T21:38:56.271Z,11.00
2022-10-30T21:41:27.554Z,11.05
2022-10-30T21:43:56.721Z,10.88
2022-10-30T21:46:27.406Z,10.54
2022-10-30T21:48:55.921Z,10.29
2022-10-30T21:51:26.430Z,10.48
2022-10-30T21:53:55.295Z,10.55
2022-10-30T21:56:28.009Z,10.45
2022-10-30T21:58:59.728Z,10.61
2022-10-30T22:01:32.321Z,10.52
2022-10-30T22:04:01.475Z,10.41
2022-10-30T22:06:30.551Z,10.53
2022-10-30T22:08:59.094Z,10.49
2022-10-30T22:11:28.366Z,10.79
2022-10-30T22:14:02.097Z,10.49
2022-10-30T22:16:32.272Z,10.49
2022-10-30T22:19:00.690Z,10.46
2022-10-30T22:21:29.953Z,10.60
2022-10-30T22:24:01.367Z,10.42
2022-10-30T22:26:29.840Z,10.06
2022-10-30T22:28:59.547Z,10.41
2022-10-30T22:31:29.111Z,10.66
2022-10-30T22:33:59.440Z,10.73
2022-10-30T22:36:29.338Z,10.55
2022-10-30T22:39:03.068Z,10.23
2022-10-30T22:41:36.426Z,10.51
2022-10-30T22:44:08.699Z,10.14
2022-10-30T22:46:37.442Z,10.29
2022-10-30T22:49:06.032Z,10.19
2022-10-30T22:51:35.312Z,10.48
2022-10-30T22:54:06.670Z,10.69
2022-10-30T22:56:36.068Z,10.69
2022-10-30T22:59:09.019Z,10.65
2022-10-30T23:01:37.573Z,10.66
2022-10-30T23:04:06.363Z,10.73
2022-10-30T23:06:35.086Z,10.62
2022-10-30T23:09:07.395Z,10.59
2022-10-30T23:11:36.234Z,9.91
2022-10-30T23:14:04.983Z,10.55
2022-10-30T23:16:34.477Z,10.37
2022-10-30T23:19:02.847Z,10.29
2022-10-30T23:21:31.605Z,9.77
2022-10-30T23:24:00.433Z,9.78
2022-10-30T23:26:30.661Z,10.10
2022-10-30T23:28:59.674Z,9.65
2022-10-30T23:31:33.814Z,10.01
2022-10-30T23:34:05.434Z,10.23
2022-10-30T23:36:35.060Z,10.18
2022-10-30T23:39:05.185Z,10.14
2022-10-30T23:41:34.660Z,9.20
2022-10-30T23:44:05.468Z,9.49
2022-10-30T23:46:34.642Z,9.80
2022-10-30T23:49:04.606Z,9.58
2022-10-30T23:51:32.921Z,9.38
2022-10-30T23:54:01.114Z,9.71
2022-10-30T23:56:29.797Z,8.72
2022-10-30T23:58:58.203Z,9.07
